San Francisco, CA (94121)

11:08 PM PST on November 23, 2014 (GMT -0800)
Ocean Beach - Kellys Cove | Change Station
CLOSE
Current Station
Personal Weather Station
Location: San Francisco, CA
Elevation: 80 ft
Nearby Weather Stations

Elev 80 ft 37.78 °N, 122.51 °W | Updated 20 seconds ago

Partly Cloudy
Partly Cloudy
53.4 °F
Feels Like 53.4 °F
N
9.2
Wind Variable Wind from East
Gusts 9.2 mph

Today
High -- | Low -- °F
--% Chance of Precip.
Yesterday
High -- | Low -- °F
Precip. -- in
6:58 AM 4:53 PM
Waxing Crescent, 4% visible
Pressure 30.33 in
Visibility 10.0 miles
Clouds Clear
Dew Point 46 °F
Humidity 76%
Rainfall 0.00 in
Snow Depth Not available.
UV 0 out of 12
Pollen 2.30 out of 12
Air Quality Not available.
Flu Activity Not available.
METAR KSFO 240656Z 00000KT 10SM CLR 12/08 A3033 RMK AO2 SLP270 T01170083

More Conditions Fewer Conditions

Pressure 30.33 in
Visibility 10.0 miles
Clouds Clear
Dew Point 46 °F
Humidity 76%
Rainfall 0.00 in
Snow Depth Not available.
UV 0 out of 12
Pollen 2.30 out of 12
Air Quality Not available.
Flu Activity Not available.
METAR KSFO 240656Z 00000KT 10SM CLR 12/08 A3033 RMK AO2 SLP270 T01170083

More Conditions Fewer Conditions

10-Day Weather Forecast

Almanac

Astronomy

Nov. 23, 2014 Rise Set
Actual Time
Civil Twilight
Nautical Twilight
Astronomical Twilight
Moon
Length of Visible Light
Length of Day
Tomorrow will be .
, % of the Moon is Illuminated

Today's Extremes

State Highs State Lows

Community

WunderPhotos

Upload Photos

1,773,295 photos uploaded!

WunderBlogs® & News

Nearby

Air Quality

  Air Quality AQ Index Pollutant
Not available.

Snow Depth

Station Depth Elevation

Earthquake Activity

City Distance Mag. Time & Date
Minimum magnitude displayed is 2.5.

Coastal Water Temperatures

Place Temperature

Nearby Weather Stations